Terminal Aerodrome Forecast
Issued by NWS

Current Version | Previous Version | Text Only | Print | Product List | Glossary On
Versions: 1 2 3 4 5 6 7 8 9 10 11 12 13 14 15 16 17 18
000 FTUS41 KGYX 281729 TAFPSM TAF KPSM 281729Z 2818/2918 36013KT 1SM -SN BR OVC012 FM282200 36011KT 3SM BR OVC025 FM290300 34007KT 5SM BR OVC035=

USA.gov is the U.S. government's official web portal to all federal, state and local government web resources and services.